createdAt,value
2023-03-07T00:02:01.244Z,17.68
2023-03-07T00:04:54.260Z,17.67
2023-03-07T00:07:36.568Z,17.63
2023-03-07T00:10:32.242Z,17.63
2023-03-07T00:13:20.501Z,17.55
2023-03-07T00:16:02.589Z,17.57
2023-03-07T00:18:51.269Z,17.55
2023-03-07T00:21:33.640Z,17.45
2023-03-07T00:24:22.252Z,17.52
2023-03-07T00:27:04.640Z,17.44
2023-03-07T00:29:53.217Z,17.47
2023-03-07T00:32:35.635Z,17.41
2023-03-07T00:35:24.240Z,17.41
2023-03-07T00:38:13.272Z,17.45
2023-03-07T00:41:07.449Z,17.53
2023-03-07T00:43:57.608Z,17.55
2023-03-07T00:46:46.775Z,17.47
2023-03-07T00:49:29.275Z,17.56
2023-03-07T00:52:18.277Z,17.47
2023-03-07T00:55:00.515Z,17.55
2023-03-07T00:57:49.221Z,17.58
2023-03-07T01:00:31.600Z,17.41
2023-03-07T01:03:20.262Z,17.48
2023-03-07T01:06:03.596Z,17.32
2023-03-07T01:08:59.242Z,17.37
2023-03-07T01:11:48.570Z,17.39
2023-03-07T01:14:31.238Z,17.27
2023-03-07T01:17:19.527Z,17.29
2023-03-07T01:20:02.242Z,17.41
2023-03-07T01:22:51.534Z,17.35
2023-03-07T01:25:34.693Z,17.37
2023-03-07T01:28:24.226Z,17.39
2023-03-07T01:31:07.855Z,17.32
2023-03-07T01:33:59.265Z,17.34
2023-03-07T01:36:51.183Z,17.40
2023-03-07T01:39:40.270Z,17.32
2023-03-07T01:42:25.596Z,17.34
2023-03-07T01:45:22.251Z,17.35
2023-03-07T01:48:04.626Z,17.37
2023-03-07T01:50:53.261Z,17.47
2023-03-07T01:53:35.540Z,17.59
2023-03-07T01:56:27.298Z,17.71
2023-03-07T01:59:10.579Z,17.77
2023-03-07T02:02:14.235Z,17.92
2023-03-07T02:05:20.529Z,18.10
2023-03-07T02:08:12.268Z,18.07
2023-03-07T02:11:08.147Z,18.18
2023-03-07T02:13:57.289Z,18.23
2023-03-07T02:16:39.688Z,18.29
2023-03-07T02:19:43.207Z,18.53
2023-03-07T02:22:26.468Z,18.64
2023-03-07T02:25:25.282Z,18.73
2023-03-07T02:28:09.506Z,18.92
2023-03-07T02:31:05.281Z,19.60
2023-03-07T02:33:55.143Z,20.26
2023-03-07T02:36:45.282Z,20.49
2023-03-07T02:39:38.210Z,20.71
2023-03-07T02:42:36.454Z,21.44
2023-03-07T02:45:25.245Z,22.20
2023-03-07T02:48:14.526Z,23.16
2023-03-07T02:50:57.221Z,23.76
2023-03-07T02:53:54.266Z,23.95
2023-03-07T02:56:43.590Z,25.08
2023-03-07T02:59:26.260Z,25.24
2023-03-07T03:02:09.807Z,25.64
2023-03-07T03:04:58.265Z,26.36
2023-03-07T03:07:47.260Z,26.27
2023-03-07T03:10:35.530Z,26.42
2023-03-07T03:13:18.234Z,25.90
2023-03-07T03:16:07.268Z,26.01
2023-03-07T03:18:49.592Z,25.55
2023-03-07T03:21:38.306Z,26.58
2023-03-07T03:24:21.554Z,26.58
2023-03-07T03:27:10.324Z,26.68
2023-03-07T03:29:55.631Z,26.81
2023-03-07T03:32:47.251Z,26.73
2023-03-07T03:35:29.653Z,27.15
2023-03-07T03:38:18.253Z,27.30
2023-03-07T03:41:00.519Z,27.39
2023-03-07T03:43:52.286Z,27.43
2023-03-07T03:46:35.589Z,27.63
2023-03-07T03:49:27.263Z,27.73
2023-03-07T03:52:10.526Z,27.32
2023-03-07T03:55:00.494Z,27.00
2023-03-07T03:57:43.713Z,26.67
2023-03-07T04:00:32.239Z,27.08
2023-03-07T04:03:14.540Z,27.20
2023-03-07T04:06:08.235Z,27.29
2023-03-07T04:08:50.522Z,27.28
2023-03-07T04:11:40.201Z,27.22
2023-03-07T04:14:29.316Z,26.73
2023-03-07T04:17:11.512Z,26.66
2023-03-07T04:20:00.289Z,27.47
2023-03-07T04:22:50.270Z,28.04
2023-03-07T04:25:32.556Z,27.78
2023-03-07T04:28:21.235Z,27.57
2023-03-07T04:31:03.521Z,27.73
2023-03-07T04:33:52.516Z,28.12
2023-03-07T04:36:35.523Z,28.02
2023-03-07T04:39:24.196Z,28.46
2023-03-07T04:42:07.540Z,28.54
2023-03-07T04:44:56.291Z,28.72
2023-03-07T04:47:38.529Z,28.83
2023-03-07T04:50:28.255Z,29.10
2023-03-07T04:53:10.521Z,28.95
2023-03-07T04:55:59.257Z,29.02
2023-03-07T04:58:42.511Z,29.12
2023-03-07T05:01:33.289Z,29.32
2023-03-07T05:04:15.512Z,29.24
2023-03-07T05:07:04.192Z,29.34
2023-03-07T05:09:46.517Z,29.40
2023-03-07T05:12:36.263Z,29.89
2023-03-07T05:15:20.663Z,29.75
2023-03-07T05:18:09.210Z,29.97
2023-03-07T05:20:52.695Z,29.68
2023-03-07T05:23:42.236Z,29.84
2023-03-07T05:26:24.622Z,30.33
2023-03-07T05:29:13.223Z,30.39
2023-03-07T05:31:55.956Z,30.52
2023-03-07T05:34:46.238Z,30.41
2023-03-07T05:37:30.491Z,30.64
2023-03-07T05:40:21.253Z,30.69
2023-03-07T05:43:03.643Z,29.96
2023-03-07T05:45:52.274Z,30.26
2023-03-07T05:48:34.496Z,29.88
2023-03-07T05:51:23.221Z,30.38
2023-03-07T05:54:05.520Z,30.47
2023-03-07T05:56:54.211Z,30.27
2023-03-07T05:59:37.538Z,30.35
2023-03-07T06:02:26.258Z,30.36
2023-03-07T06:05:08.538Z,30.13
2023-03-07T06:07:58.246Z,29.88
2023-03-07T06:10:53.050Z,29.52
2023-03-07T06:13:43.247Z,29.88
2023-03-07T06:16:25.525Z,29.70
2023-03-07T06:19:17.225Z,30.42
2023-03-07T06:22:00.530Z,30.48
2023-03-07T06:24:50.236Z,30.17
2023-03-07T06:27:32.490Z,29.92
2023-03-07T06:30:21.183Z,29.68
2023-03-07T06:33:10.204Z,29.80
2023-03-07T06:35:58.698Z,30.20
2023-03-07T06:38:41.282Z,30.36
2023-03-07T06:41:29.488Z,30.42
2023-03-07T06:44:13.242Z,29.88
2023-03-07T06:47:02.451Z,30.29
2023-03-07T06:49:45.173Z,30.17
2023-03-07T06:52:34.198Z,30.26
2023-03-07T06:55:17.558Z,29.87
2023-03-07T06:58:06.198Z,29.56
2023-03-07T07:00:48.464Z,29.83
2023-03-07T07:03:37.276Z,30.07
2023-03-07T07:06:19.464Z,30.13
2023-03-07T07:09:08.203Z,29.84
2023-03-07T07:11:56.475Z,29.86
2023-03-07T07:14:39.214Z,29.92
2023-03-07T07:17:28.431Z,30.11
2023-03-07T07:20:12.337Z,30.08
2023-03-07T07:23:02.321Z,30.11
2023-03-07T07:25:47.514Z,30.07
2023-03-07T07:28:36.234Z,29.97
2023-03-07T07:31:18.504Z,30.05
2023-03-07T07:34:08.235Z,29.97
2023-03-07T07:36:50.608Z,29.80
2023-03-07T07:39:39.192Z,29.77
2023-03-07T07:42:21.487Z,29.71
2023-03-07T07:45:36.251Z,29.85
2023-03-07T07:48:22.494Z,29.93
2023-03-07T07:51:12.262Z,29.97
2023-03-07T07:53:54.528Z,29.94
2023-03-07T07:56:43.251Z,30.12
2023-03-07T07:59:33.269Z,30.14
2023-03-07T08:02:22.565Z,30.19
2023-03-07T08:05:05.197Z,29.87
2023-03-07T08:08:00.228Z,29.82
2023-03-07T08:10:48.521Z,29.71
2023-03-07T08:13:31.201Z,29.69
2023-03-07T08:16:18.573Z,29.74
2023-03-07T08:19:09.270Z,29.58
2023-03-07T08:21:57.601Z,29.58
2023-03-07T08:24:43.637Z,29.35
2023-03-07T08:27:31.506Z,29.44
2023-03-07T08:30:14.264Z,29.43
2023-03-07T08:32:57.629Z,29.42
2023-03-07T08:35:48.277Z,29.44
2023-03-07T08:38:37.265Z,29.28
2023-03-07T08:41:19.550Z,29.22
2023-03-07T08:44:08.216Z,28.94
2023-03-07T08:46:50.505Z,28.93
2023-03-07T08:49:39.213Z,29.02
2023-03-07T08:52:28.225Z,29.05
2023-03-07T08:55:11.285Z,28.96
2023-03-07T08:58:00.239Z,28.87
2023-03-07T09:00:42.789Z,28.97
2023-03-07T09:03:31.178Z,28.96
2023-03-07T09:06:21.788Z,28.73
2023-03-07T09:09:10.198Z,28.70
2023-03-07T09:11:58.484Z,28.77
2023-03-07T09:14:40.225Z,28.84
2023-03-07T09:17:29.506Z,28.81
2023-03-07T09:20:12.206Z,28.77
2023-03-07T09:22:55.238Z,28.87
2023-03-07T09:25:44.225Z,28.87
2023-03-07T09:28:32.492Z,28.83
2023-03-07T09:31:21.494Z,28.79
2023-03-07T09:34:09.508Z,28.78
2023-03-07T09:36:51.333Z,28.81
2023-03-07T09:39:33.768Z,28.85
2023-03-07T09:42:52.200Z,28.62
2023-03-07T09:46:10.866Z,28.71
2023-03-07T09:49:29.256Z,28.49
2023-03-07T09:52:19.372Z,28.51
2023-03-07T09:55:11.265Z,28.63
2023-03-07T09:58:04.911Z,28.56
2023-03-07T10:00:51.209Z,28.40
2023-03-07T10:04:01.899Z,28.28
2023-03-07T10:06:50.210Z,28.38
2023-03-07T10:09:32.687Z,28.48
2023-03-07T10:12:40.243Z,28.47
2023-03-07T10:16:02.235Z,28.41
2023-03-07T10:18:49.994Z,28.42
2023-03-07T10:21:39.415Z,28.38
2023-03-07T10:24:44.701Z,28.37
2023-03-07T10:27:37.192Z,28.37
2023-03-07T10:30:26.710Z,28.29
2023-03-07T10:33:09.645Z,28.23
2023-03-07T10:36:14.797Z,28.05
2023-03-07T10:39:07.569Z,27.91
2023-03-07T10:41:56.720Z,27.84
2023-03-07T10:44:42.330Z,27.84
2023-03-07T10:47:33.239Z,27.79
2023-03-07T10:50:30.469Z,27.68
2023-03-07T10:53:37.224Z,27.59
2023-03-07T10:56:27.527Z,27.55
2023-03-07T10:59:18.220Z,27.51
2023-03-07T11:02:06.988Z,27.56
2023-03-07T11:04:56.412Z,27.57
2023-03-07T11:07:41.561Z,27.49
2023-03-07T11:10:48.233Z,27.46
2023-03-07T11:13:32.401Z,27.39
2023-03-07T11:16:28.255Z,27.36
2023-03-07T11:19:10.469Z,27.33
2023-03-07T11:22:04.231Z,27.30
2023-03-07T11:24:47.461Z,27.29
2023-03-07T11:27:59.238Z,27.30
2023-03-07T11:30:59.494Z,27.22
2023-03-07T11:34:04.257Z,27.18
2023-03-07T11:36:50.013Z,27.13
2023-03-07T11:39:48.161Z,27.05
2023-03-07T11:42:36.585Z,27.02
2023-03-07T11:45:34.230Z,27.00
2023-03-07T11:48:29.000Z,27.01
2023-03-07T11:51:57.231Z,26.97
2023-03-07T11:55:06.950Z,26.88
2023-03-07T11:58:11.239Z,26.82
2023-03-07T12:01:12.154Z,26.75
2023-03-07T12:04:11.259Z,26.71
2023-03-07T12:07:17.271Z,26.64
2023-03-07T12:10:37.241Z,26.55
2023-03-07T12:13:40.558Z,26.49
2023-03-07T12:16:36.305Z,26.44
2023-03-07T12:19:27.554Z,26.42
2023-03-07T12:22:34.252Z,26.39
2023-03-07T12:25:46.234Z,26.32
2023-03-07T12:28:43.555Z,26.23
2023-03-07T12:31:42.376Z,26.15
2023-03-07T12:34:28.509Z,26.06
2023-03-07T12:37:31.286Z,26.01
2023-03-07T12:40:18.572Z,25.94
2023-03-07T12:43:41.255Z,25.85
2023-03-07T12:46:52.544Z,25.65
2023-03-07T12:49:59.354Z,25.71
2023-03-07T12:52:59.571Z,25.62
2023-03-07T12:55:55.308Z,25.53
2023-03-07T12:59:11.132Z,25.45
2023-03-07T13:02:11.258Z,25.31
2023-03-07T13:04:53.492Z,25.22
2023-03-07T13:07:43.198Z,25.13
2023-03-07T13:10:40.044Z,25.08
2023-03-07T13:13:59.167Z,24.92
2023-03-07T13:16:55.716Z,24.95
2023-03-07T13:19:44.169Z,24.92
2023-03-07T13:22:26.536Z,24.85
2023-03-07T13:25:33.541Z,24.88
2023-03-07T13:28:39.540Z,24.80
2023-03-07T13:31:28.287Z,24.72
2023-03-07T13:34:52.358Z,24.61
2023-03-07T13:38:09.277Z,24.57
2023-03-07T13:40:54.806Z,24.57
2023-03-07T13:43:55.373Z,24.56
2023-03-07T13:47:02.242Z,24.50
2023-03-07T13:49:46.089Z,24.32
2023-03-07T13:52:47.152Z,24.17
2023-03-07T13:55:39.548Z,24.16
2023-03-07T13:58:41.209Z,24.13
2023-03-07T14:01:34.441Z,24.08
2023-03-07T14:04:40.802Z,23.93
2023-03-07T14:07:35.211Z,23.91
2023-03-07T14:10:30.309Z,23.91
2023-03-07T14:13:12.592Z,23.76
2023-03-07T14:16:21.269Z,23.71
2023-03-07T14:19:35.492Z,23.65
2023-03-07T14:23:02.236Z,23.62
2023-03-07T14:26:03.241Z,23.59
2023-03-07T14:29:05.566Z,23.56
2023-03-07T14:31:50.225Z,23.51
2023-03-07T14:34:43.511Z,23.50
2023-03-07T14:37:30.215Z,23.43
2023-03-07T14:40:38.493Z,23.35
2023-03-07T14:43:32.225Z,23.21
2023-03-07T14:46:39.519Z,23.09
2023-03-07T14:49:45.166Z,22.95
2023-03-07T14:52:34.555Z,22.86
2023-03-07T14:55:26.226Z,22.77
2023-03-07T14:58:15.482Z,22.73
2023-03-07T15:01:08.211Z,22.71
2023-03-07T15:03:55.324Z,22.61
2023-03-07T15:06:45.246Z,22.59
2023-03-07T15:09:34.699Z,22.50
2023-03-07T15:12:34.200Z,22.50
2023-03-07T15:15:31.471Z,22.47
2023-03-07T15:18:43.275Z,22.42
2023-03-07T15:21:29.530Z,22.38
2023-03-07T15:24:36.230Z,22.25
2023-03-07T15:27:22.670Z,22.25
2023-03-07T15:30:12.225Z,22.17
2023-03-07T15:33:01.255Z,22.13
2023-03-07T15:35:51.447Z,22.10
2023-03-07T15:38:34.230Z,22.07
2023-03-07T15:41:44.513Z,21.99
2023-03-07T15:44:29.246Z,21.93
2023-03-07T15:47:24.571Z,21.95
2023-03-07T15:50:14.479Z,21.88
2023-03-07T15:53:08.537Z,21.87
2023-03-07T15:55:53.210Z,21.87
2023-03-07T15:58:51.551Z,21.90
2023-03-07T16:01:35.239Z,21.86
2023-03-07T16:04:44.511Z,21.82
2023-03-07T16:07:27.258Z,21.74
2023-03-07T16:10:16.480Z,21.71
2023-03-07T16:13:07.249Z,21.73
2023-03-07T16:15:49.476Z,21.69
2023-03-07T16:18:39.286Z,21.66
2023-03-07T16:21:23.489Z,21.59
2023-03-07T16:24:12.251Z,21.50
2023-03-07T16:26:55.542Z,21.48
2023-03-07T16:29:44.261Z,21.44
2023-03-07T16:32:29.528Z,21.45
2023-03-07T16:35:27.208Z,21.43
2023-03-07T16:38:09.580Z,21.48
2023-03-07T16:40:58.250Z,21.43
2023-03-07T16:43:45.046Z,21.53
2023-03-07T16:46:29.233Z,21.47
2023-03-07T16:49:26.224Z,21.40
2023-03-07T16:52:08.677Z,21.37
2023-03-07T16:54:57.229Z,21.39
2023-03-07T16:57:39.747Z,21.37
2023-03-07T17:00:33.573Z,21.34
2023-03-07T17:03:17.669Z,21.34
2023-03-07T17:06:06.248Z,21.27
2023-03-07T17:08:48.635Z,21.30
2023-03-07T17:11:37.257Z,21.26
2023-03-07T17:14:22.706Z,21.25
2023-03-07T17:17:12.253Z,21.21
2023-03-07T17:19:54.613Z,21.20
2023-03-07T17:22:45.173Z,21.18
2023-03-07T17:25:35.117Z,21.22
2023-03-07T17:28:25.227Z,21.20
2023-03-07T17:31:07.701Z,21.18
2023-03-07T17:33:57.263Z,21.18
2023-03-07T17:36:39.748Z,21.11
2023-03-07T17:39:29.179Z,21.12
2023-03-07T17:42:12.730Z,21.03
2023-03-07T17:45:01.269Z,21.15
2023-03-07T17:47:44.485Z,21.06
2023-03-07T17:50:33.391Z,21.05
2023-03-07T17:53:15.512Z,21.00
2023-03-07T17:56:04.275Z,21.04
2023-03-07T17:58:46.526Z,21.04
2023-03-07T18:01:37.352Z,20.98
2023-03-07T18:04:20.018Z,20.97
2023-03-07T18:07:10.220Z,20.93
2023-03-07T18:10:06.917Z,20.94
2023-03-07T18:13:03.220Z,20.93
2023-03-07T18:16:03.325Z,20.91
2023-03-07T18:18:59.509Z,20.81
2023-03-07T18:21:42.572Z,20.86
2023-03-07T18:24:34.240Z,20.86
2023-03-07T18:27:16.759Z,20.85
2023-03-07T18:30:05.189Z,20.89
2023-03-07T18:32:47.613Z,20.85
2023-03-07T18:35:36.243Z,20.84
2023-03-07T18:38:18.578Z,20.87
2023-03-07T18:41:21.286Z,20.82
2023-03-07T18:44:05.492Z,20.77
2023-03-07T18:46:55.243Z,20.80
2023-03-07T18:49:37.545Z,20.78
2023-03-07T18:52:26.247Z,20.74
2023-03-07T18:55:08.734Z,20.76
2023-03-07T18:57:57.220Z,20.76
2023-03-07T19:00:39.711Z,20.70
2023-03-07T19:03:28.138Z,20.61
2023-03-07T19:06:10.549Z,20.53
2023-03-07T19:09:00.639Z,20.54
2023-03-07T19:11:48.669Z,20.52
2023-03-07T19:14:30.217Z,20.48
2023-03-07T19:17:19.672Z,20.46
2023-03-07T19:20:07.315Z,20.44
2023-03-07T19:22:55.574Z,20.32
2023-03-07T19:25:39.188Z,20.33
2023-03-07T19:28:27.554Z,20.23
2023-03-07T19:31:22.254Z,20.27
2023-03-07T19:34:11.668Z,20.30
2023-03-07T19:36:54.262Z,20.18
2023-03-07T19:39:42.603Z,20.18
2023-03-07T19:42:25.188Z,20.11
2023-03-07T19:45:14.843Z,20.08
2023-03-07T19:47:58.135Z,20.09
2023-03-07T19:50:50.224Z,20.06
2023-03-07T19:53:32.567Z,20.03
2023-03-07T19:56:27.124Z,20.02
2023-03-07T19:59:12.643Z,20.02
2023-03-07T20:02:01.176Z,19.94
2023-03-07T20:04:43.703Z,19.88
2023-03-07T20:07:32.248Z,19.91
2023-03-07T20:10:15.499Z,19.90
2023-03-07T20:13:04.182Z,19.87
2023-03-07T20:15:46.479Z,19.79
2023-03-07T20:18:35.244Z,19.79
2023-03-07T20:21:22.886Z,19.73
2023-03-07T20:24:13.205Z,19.75
2023-03-07T20:26:55.640Z,19.73
2023-03-07T20:29:44.244Z,19.73
2023-03-07T20:32:27.782Z,19.67
2023-03-07T20:35:17.564Z,19.67
2023-03-07T20:38:00.580Z,19.67
2023-03-07T20:40:49.185Z,19.60
2023-03-07T20:43:31.509Z,19.54
2023-03-07T20:46:22.245Z,19.54
2023-03-07T20:49:05.506Z,19.57
2023-03-07T20:51:55.191Z,19.50
2023-03-07T20:54:37.749Z,19.48
2023-03-07T20:57:26.212Z,19.47
2023-03-07T21:00:09.393Z,19.46
2023-03-07T21:03:05.798Z,19.38
2023-03-07T21:05:48.568Z,19.42
2023-03-07T21:08:39.130Z,19.38
2023-03-07T21:11:36.091Z,19.37
2023-03-07T21:14:27.885Z,19.35
2023-03-07T21:17:17.254Z,19.30
2023-03-07T21:20:06.186Z,19.33
2023-03-07T21:22:48.476Z,19.36
2023-03-07T21:25:38.234Z,19.32
2023-03-07T21:28:27.196Z,19.37
2023-03-07T21:31:20.230Z,19.28
2023-03-07T21:34:07.490Z,19.37
2023-03-07T21:36:56.526Z,19.30
2023-03-07T21:39:38.486Z,19.24
2023-03-07T21:42:27.192Z,19.21
2023-03-07T21:45:11.867Z,19.29
2023-03-07T21:48:02.226Z,19.23
2023-03-07T21:50:44.524Z,19.06
2023-03-07T21:53:33.178Z,19.10
2023-03-07T21:56:18.509Z,19.07
2023-03-07T21:59:07.227Z,19.02
2023-03-07T22:01:49.494Z,19.07
2023-03-07T22:04:38.178Z,19.03
2023-03-07T22:07:21.241Z,19.02
2023-03-07T22:10:10.198Z,19.07
2023-03-07T22:12:58.515Z,18.98
2023-03-07T22:15:40.139Z,18.96
2023-03-07T22:18:22.431Z,18.99
2023-03-07T22:21:12.233Z,18.94
2023-03-07T22:24:05.423Z,18.93
2023-03-07T22:26:48.176Z,18.90
2023-03-07T22:29:30.529Z,18.78
2023-03-07T22:32:20.246Z,18.80
2023-03-07T22:35:09.531Z,18.77
2023-03-07T22:37:52.466Z,18.69
2023-03-07T22:40:34.476Z,18.72
2023-03-07T22:43:23.226Z,18.80
2023-03-07T22:46:13.539Z,18.76
2023-03-07T22:49:03.258Z,18.72
2023-03-07T22:51:45.328Z,18.71
2023-03-07T22:54:34.154Z,18.68
2023-03-07T22:57:22.466Z,18.65
2023-03-07T23:00:05.168Z,18.69
2023-03-07T23:02:47.462Z,18.60
2023-03-07T23:05:36.215Z,18.68
2023-03-07T23:08:24.515Z,18.71
2023-03-07T23:11:14.223Z,18.72
2023-03-07T23:14:05.136Z,18.68
2023-03-07T23:16:48.155Z,18.65
2023-03-07T23:19:31.610Z,18.62
2023-03-07T23:22:20.247Z,18.66
2023-03-07T23:25:08.474Z,18.70
2023-03-07T23:27:51.198Z,18.66
2023-03-07T23:30:36.440Z,18.54
2023-03-07T23:33:25.168Z,18.54
2023-03-07T23:36:14.135Z,18.40
2023-03-07T23:39:03.170Z,18.47
2023-03-07T23:41:45.430Z,18.44
2023-03-07T23:44:34.492Z,18.46
2023-03-07T23:47:24.458Z,18.47
2023-03-07T23:50:06.163Z,18.40
2023-03-07T23:52:55.469Z,18.40
2023-03-07T23:55:38.162Z,18.42
2023-03-07T23:58:20.397Z,18.42
